createdAt,value
2022-10-17T00:03:53.532Z,82.70
2022-10-17T00:08:57.066Z,82.50
2022-10-17T00:14:00.583Z,82.60
2022-10-17T00:19:07.818Z,82.70
2022-10-17T00:24:11.316Z,82.80
2022-10-17T00:29:14.772Z,82.80
2022-10-17T00:34:19.711Z,83.30
2022-10-17T00:39:23.162Z,83.50
2022-10-17T00:45:09.326Z,83.30
2022-10-17T00:50:15.418Z,83.40
2022-10-17T00:55:25.346Z,83.60
2022-10-17T01:00:28.956Z,83.40
2022-10-17T01:05:34.420Z,83.60
2022-10-17T01:10:53.800Z,83.60
2022-10-17T01:16:09.978Z,83.50
2022-10-17T01:21:38.958Z,83.40
2022-10-17T01:27:06.201Z,83.80
2022-10-17T01:32:17.394Z,83.50
2022-10-17T01:37:29.751Z,83.60
2022-10-17T01:42:41.371Z,83.70
2022-10-17T01:47:49.355Z,83.70
2022-10-17T01:53:00.167Z,83.50
2022-10-17T01:58:10.691Z,83.50
2022-10-17T02:03:21.167Z,83.60
2022-10-17T02:08:29.055Z,83.20
2022-10-17T02:13:51.410Z,83.40
2022-10-17T02:19:34.326Z,84.10
2022-10-17T02:24:49.675Z,83.50
2022-10-17T02:30:02.377Z,83.80
2022-10-17T02:35:11.367Z,83.60
2022-10-17T02:40:17.584Z,83.70
2022-10-17T02:45:21.925Z,83.60
2022-10-17T02:50:38.947Z,84.10
2022-10-17T02:55:51.804Z,84.20
2022-10-17T03:00:55.685Z,84.30
2022-10-17T03:06:00.649Z,84.00
2022-10-17T03:11:04.127Z,84.10
2022-10-17T03:16:08.202Z,83.90
2022-10-17T03:21:14.099Z,84.10
2022-10-17T03:26:17.966Z,84.00
2022-10-17T03:31:21.673Z,84.80
2022-10-17T03:36:27.336Z,84.50
2022-10-17T03:41:31.341Z,84.30
2022-10-17T03:46:35.396Z,84.10
2022-10-17T03:51:40.431Z,84.30
2022-10-17T03:56:48.650Z,84.20
2022-10-17T04:01:55.386Z,84.20
2022-10-17T04:07:00.824Z,84.10
2022-10-17T04:12:05.530Z,84.10
2022-10-17T04:17:10.462Z,83.90
2022-10-17T04:22:16.922Z,84.40
2022-10-17T04:27:20.638Z,83.80
2022-10-17T04:32:25.871Z,83.50
2022-10-17T04:37:44.997Z,83.90
2022-10-17T04:42:54.475Z,84.20
2022-10-17T04:48:03.452Z,84.70
2022-10-17T04:53:08.298Z,84.70
2022-10-17T04:58:11.937Z,84.80
2022-10-17T05:03:16.960Z,84.70
2022-10-17T05:08:21.765Z,84.60
2022-10-17T05:13:27.774Z,84.70
2022-10-17T05:18:31.497Z,84.50
2022-10-17T05:23:36.550Z,84.30
2022-10-17T05:28:40.455Z,84.70
2022-10-17T05:33:45.141Z,84.20
2022-10-17T05:38:53.217Z,83.20
2022-10-17T05:43:57.806Z,83.10
2022-10-17T05:49:31.863Z,82.90
2022-10-17T05:54:39.846Z,82.70
2022-10-17T05:59:43.574Z,82.70
2022-10-17T06:04:54.870Z,82.60
2022-10-17T06:10:01.979Z,82.40
2022-10-17T06:15:07.702Z,82.60
2022-10-17T06:20:12.369Z,82.40
2022-10-17T06:25:17.472Z,82.60
2022-10-17T06:30:21.366Z,82.80
2022-10-17T06:35:26.816Z,82.60
2022-10-17T06:40:31.740Z,82.70
2022-10-17T06:45:36.812Z,82.70
2022-10-17T06:50:50.662Z,82.60
2022-10-17T06:56:03.066Z,82.50
2022-10-17T07:01:36.020Z,83.60
2022-10-17T07:06:41.406Z,83.60
2022-10-17T07:11:53.445Z,83.30
2022-10-17T07:16:57.347Z,83.40
2022-10-17T07:22:02.701Z,83.10
2022-10-17T07:27:09.275Z,82.90
2022-10-17T07:32:13.019Z,82.50
2022-10-17T07:37:17.372Z,82.20
2022-10-17T07:42:29.127Z,82.00
2022-10-17T07:47:35.729Z,81.80
2022-10-17T07:52:43.216Z,81.40
2022-10-17T07:57:48.190Z,81.10
2022-10-17T08:02:51.887Z,81.00
2022-10-17T08:07:58.613Z,80.90
2022-10-17T08:13:03.797Z,81.20
2022-10-17T08:18:07.461Z,80.90
2022-10-17T08:23:11.031Z,80.50
2022-10-17T08:28:16.048Z,80.50
2022-10-17T08:33:19.612Z,80.50
2022-10-17T08:38:26.178Z,80.30
2022-10-17T08:43:54.490Z,80.30
2022-10-17T08:49:03.317Z,80.20
2022-10-17T08:54:16.528Z,80.20
2022-10-17T08:59:29.103Z,80.10
2022-10-17T09:05:04.636Z,80.20
2022-10-17T09:10:17.447Z,80.20
2022-10-17T09:15:45.199Z,80.00
2022-10-17T09:20:54.842Z,80.10
2022-10-17T09:26:01.663Z,80.30
2022-10-17T09:31:13.606Z,80.40
2022-10-17T09:36:22.778Z,80.40
2022-10-17T09:41:47.450Z,80.40
2022-10-17T09:47:26.096Z,80.50
2022-10-17T09:52:35.581Z,80.60
2022-10-17T09:57:56.769Z,80.70
2022-10-17T10:03:20.006Z,80.50
2022-10-17T10:08:29.950Z,80.60
2022-10-17T10:13:35.862Z,80.80
2022-10-17T10:18:40.909Z,80.70
2022-10-17T10:23:46.803Z,80.80
2022-10-17T10:28:58.594Z,81.00
2022-10-17T10:34:21.071Z,80.90
2022-10-17T10:39:50.938Z,80.90
2022-10-17T10:45:03.456Z,80.80
2022-10-17T10:50:35.760Z,80.90
2022-10-17T10:55:48.145Z,80.80
2022-10-17T11:00:52.408Z,81.00
2022-10-17T11:06:05.644Z,81.00
2022-10-17T11:11:19.836Z,80.90
2022-10-17T11:20:23.477Z,80.80
2022-10-17T11:25:38.168Z,79.50
2022-10-17T11:30:50.300Z,80.80
2022-10-17T11:36:04.666Z,81.00
2022-10-17T11:41:13.747Z,81.10
2022-10-17T11:46:23.794Z,81.20
2022-10-17T11:57:20.825Z,81.20
2022-10-17T12:02:38.051Z,81.30
2022-10-17T12:07:50.388Z,81.70
2022-10-17T12:12:54.053Z,81.60
2022-10-17T12:18:02.533Z,81.50
2022-10-17T12:23:29.630Z,81.50
2022-10-17T12:28:35.006Z,81.40
2022-10-17T12:33:51.926Z,81.90
2022-10-17T12:39:50.931Z,82.80
2022-10-17T12:44:54.608Z,83.30
2022-10-17T12:49:58.362Z,83.60
2022-10-17T12:55:14.360Z,83.50
2022-10-17T13:00:25.363Z,83.60
2022-10-17T13:05:33.932Z,83.80
2022-10-17T13:10:43.210Z,83.50
2022-10-17T13:15:49.942Z,83.50
2022-10-17T13:21:00.182Z,83.50
2022-10-17T13:26:20.090Z,83.40
2022-10-17T13:31:32.915Z,83.30
2022-10-17T13:36:37.262Z,83.30
2022-10-17T13:41:43.088Z,83.10
2022-10-17T13:46:47.017Z,83.10
2022-10-17T13:51:53.125Z,83.00
2022-10-17T13:56:59.487Z,83.00
2022-10-17T14:02:03.645Z,82.90
2022-10-17T14:07:08.274Z,82.90
2022-10-17T14:12:16.717Z,82.80
2022-10-17T14:17:27.654Z,82.80
2022-10-17T14:22:36.902Z,82.60
2022-10-17T14:28:02.539Z,82.60
2022-10-17T14:33:15.448Z,82.50
2022-10-17T14:38:20.104Z,82.50
2022-10-17T14:43:30.671Z,82.40
2022-10-17T14:48:36.008Z,82.50
2022-10-17T14:53:40.800Z,82.30
2022-10-17T14:58:45.735Z,82.30
2022-10-17T15:03:49.374Z,82.30
2022-10-17T15:08:53.138Z,82.20
2022-10-17T15:13:58.466Z,82.60
2022-10-17T15:19:02.495Z,82.20
2022-10-17T15:24:06.660Z,82.10
2022-10-17T15:29:16.703Z,82.10
2022-10-17T15:34:20.380Z,82.10
2022-10-17T15:39:23.932Z,82.00
2022-10-17T15:44:29.726Z,81.90
2022-10-17T15:49:34.665Z,81.90
2022-10-17T15:54:38.341Z,81.90
2022-10-17T15:59:43.754Z,81.90
2022-10-17T16:04:49.673Z,81.80
2022-10-17T16:09:53.317Z,81.80
2022-10-17T16:14:58.508Z,81.70
2022-10-17T16:20:02.101Z,81.70
2022-10-17T16:25:10.063Z,81.70
2022-10-17T16:30:16.094Z,81.70
2022-10-17T16:35:25.205Z,81.60
2022-10-17T16:40:28.911Z,81.60
2022-10-17T16:45:34.392Z,81.60
2022-10-17T16:50:41.576Z,81.60
2022-10-17T16:55:45.293Z,81.50
2022-10-17T17:00:50.220Z,81.50
2022-10-17T17:05:54.585Z,81.50
2022-10-17T17:10:58.864Z,81.40
2022-10-17T17:16:10.455Z,81.50
2022-10-17T17:21:14.643Z,81.50
2022-10-17T17:26:21.783Z,81.40
2022-10-17T17:31:30.034Z,81.40
2022-10-17T17:36:37.268Z,81.40
2022-10-17T17:41:43.406Z,81.30
2022-10-17T17:46:49.579Z,81.50
2022-10-17T17:51:53.776Z,82.10
2022-10-17T17:56:57.578Z,82.10
2022-10-17T18:02:03.066Z,82.30
2022-10-17T18:07:06.695Z,82.80
2022-10-17T18:12:10.496Z,82.40
2022-10-17T18:17:15.546Z,82.10
2022-10-17T18:22:19.088Z,82.40
2022-10-17T18:27:22.674Z,82.10
2022-10-17T18:32:28.022Z,81.80
2022-10-17T18:37:32.132Z,81.70
2022-10-17T18:42:35.796Z,81.60
2022-10-17T18:47:44.100Z,81.50
2022-10-17T18:52:48.919Z,81.40
2022-10-17T18:57:53.100Z,81.40
2022-10-17T19:02:58.604Z,81.50
2022-10-17T19:08:02.205Z,81.40
2022-10-17T19:13:06.313Z,81.40
2022-10-17T19:18:11.410Z,81.40
2022-10-17T19:23:14.968Z,81.50
2022-10-17T19:28:18.533Z,82.20
2022-10-17T19:33:23.626Z,82.20
2022-10-17T19:38:27.880Z,81.80
2022-10-17T19:43:31.540Z,81.60
2022-10-17T19:48:38.513Z,81.70
2022-10-17T19:53:42.978Z,81.60
2022-10-17T19:58:47.248Z,81.60
2022-10-17T20:03:53.024Z,82.80
2022-10-17T20:08:57.157Z,83.00
2022-10-17T20:14:02.153Z,83.40
2022-10-17T20:19:12.425Z,83.30
2022-10-17T20:24:18.398Z,83.20
2022-10-17T20:29:24.143Z,83.10
2022-10-17T20:34:34.782Z,83.10
2022-10-17T20:39:39.090Z,83.00
2022-10-17T20:44:42.619Z,82.80
2022-10-17T20:49:47.643Z,82.80
2022-10-17T20:54:51.463Z,82.70
2022-10-17T20:59:54.972Z,82.70
2022-10-17T21:05:00.163Z,82.60
2022-10-17T21:10:30.656Z,82.70
2022-10-17T21:15:27.866Z,82.60
2022-10-17T21:20:33.145Z,82.60
2022-10-17T21:25:37.683Z,82.60
2022-10-17T21:30:43.634Z,82.60
2022-10-17T21:35:48.665Z,82.60
2022-10-17T21:40:55.246Z,82.50
2022-10-17T21:46:04.962Z,82.50
2022-10-17T21:51:12.503Z,82.60
2022-10-17T21:56:20.264Z,82.50
2022-10-17T22:01:27.521Z,82.50
2022-10-17T22:06:40.914Z,82.50
2022-10-17T22:11:48.447Z,84.70
2022-10-17T22:16:52.147Z,85.60
2022-10-17T22:21:57.520Z,86.00
2022-10-17T22:27:01.185Z,87.40
2022-10-17T22:32:04.667Z,88.00
2022-10-17T22:37:09.451Z,87.50
2022-10-17T22:42:13.000Z,87.60
2022-10-17T22:47:16.459Z,86.80
2022-10-17T22:52:21.276Z,87.00
2022-10-17T22:57:24.829Z,86.50
2022-10-17T23:02:28.463Z,86.90
2022-10-17T23:07:34.642Z,86.90
2022-10-17T23:12:38.230Z,86.70
2022-10-17T23:17:41.692Z,86.50
2022-10-17T23:22:46.612Z,86.40
2022-10-17T23:27:50.262Z,86.20
2022-10-17T23:32:54.870Z,86.20
2022-10-17T23:37:59.918Z,86.20
2022-10-17T23:43:03.805Z,86.00
2022-10-17T23:48:07.567Z,85.90
2022-10-17T23:53:12.466Z,85.90
2022-10-17T23:58:16.413Z,85.80
